JP-0082 weather

Ajicho Helipad
Ajicho, Kagawa Prefecture, Japan

Public forecast

Using degrees Celsius for public forecast. Weather courtesy of forecast.io.

METAR (pilot weather report)

Report is more than 2 hours old.

Closest report is Takamatsu Airport, 12.4 nm (23.0 km) SSW. Retrieved 2019/05/21 12:00 UTC (5 hours ago):

RJOT 211200Z 25005KT 9999 FEW030 SCT060 16/10 Q1006

TAF (pilot weather forecast)

Closest forecast is Takamatsu Airport, 12.4 nm (23.0 km) SSW. Retrieved 2019/05/21 12:30 UTC (4 hours ago):

TAF TAF RJOT 211110Z 2112/2218 20005KT 9999 FEW030